Airfield :
LOGIN :

Register | Disclaimer

   EN    FR    IT 

 










Legend :    VFR   Marginal VFR   IFR   Intensive IFR   Very Intensive IFR
Visi :
Ceiling :
>= 8 km
>= 3000ft
5 to 8 km
1000 to 3000 ft
1500m to 5 km
500 to 1000 ft
800 to 1500m
200 to 500 ft
< 800m
< 200 ft
Symbols :   Thunderstorms  Fog  Heavy snow  Heavy precipitations  Wind > 20 kt
SIGMETs :     Misc.  Thunderstorms  Icing  Turbulence  Mountain Waves  Volcanic Ashes







- Airport Elevation : 100 ft


EBDT - Schaffen

CURRENT METAR :
  • 250643Z AUTO 19004KT 7000 NCD 17/16 Q1018 WHT

EXPIRED METARs :
  • 250625Z AUTO VRB02KT 4700 BR NCD 16/16 Q1018 GRN
  • 250555Z AUTO VRB02KT 2400 BR FEW002/// 15/14 Q1017 YLO
  • 250525Z AUTO VRB01KT 2600 BR FEW001/// 14/14 Q1017 YLO
  • 250508Z AUTO VRB01KT 1600 BR BKN001/// 14/14 Q1017 RED
  • 250455Z AUTO VRB02KT 0800 FG VV001/// 14/14 Q1017 AMB
  • 250425Z AUTO VRB02KT 0100 FG VV002/// 13/13 Q1017 RED
  • 250355Z AUTO 19003KT 0250 FG VV006/// 13/13 Q1017 RED

Expired Forecast.
No reported NOTAMs for that airfield.



MET'MAP, your aeronautical weather chart ! - Copyright ORBIFLY December 2007 - Disclaimer

ORBIFLY MET'MAP TEAM :

Programming & Development : Alexandra Zaïnal
Concept & Development : Baudouin d'Aumeries
Co-Development & Prog : Marc-Olivier Méhu
Technical & hardware support : Manuel Goepfert

Contact : metmap@orbifly.com




SOURCES & CREDITS :

   NOAA